sensor_id;sensor_type;location;lat;lon;timestamp;temperature;humidity
14521;DHT22;7347;50.844;4.490;2023-06-22T07:50:08;22.50;99.90
14521;DHT22;7347;50.844;4.490;2023-06-22T07:52:35;22.50;99.90
14521;DHT22;7347;50.844;4.490;2023-06-22T07:55:02;22.40;99.90
14521;DHT22;7347;50.844;4.490;2023-06-22T07:57:29;22.10;99.90
14521;DHT22;7347;50.844;4.490;2023-06-22T07:59:59;21.90;99.90
14521;DHT22;7347;50.844;4.490;2023-06-22T08:02:26;21.70;99.90
14521;DHT22;7347;50.844;4.490;2023-06-22T08:04:53;21.70;99.90
14521;DHT22;7347;50.844;4.490;2023-06-22T08:07:21;21.80;99.90
14521;DHT22;7347;50.844;4.490;2023-06-22T08:09:48;21.80;99.90
14521;DHT22;7347;50.844;4.490;2023-06-22T08:12:15;21.60;99.90
14521;DHT22;7347;50.844;4.490;2023-06-22T08:14:43;21.60;99.90
14521;DHT22;7347;50.844;4.490;2023-06-22T08:17:11;21.60;99.90
14521;DHT22;7347;50.844;4.490;2023-06-22T08:19:40;21.50;99.90
14521;DHT22;7347;50.844;4.490;2023-06-22T08:22:07;21.70;99.90
14521;DHT22;7347;50.844;4.490;2023-06-22T08:24:35;21.80;99.90
14521;DHT22;7347;50.844;4.490;2023-06-22T08:27:02;21.80;99.90
14521;DHT22;7347;50.844;4.490;2023-06-22T08:29:29;21.60;99.90
14521;DHT22;7347;50.844;4.490;2023-06-22T08:31:55;21.60;99.90
14521;DHT22;7347;50.844;4.490;2023-06-22T08:34:22;21.60;99.90
14521;DHT22;7347;50.844;4.490;2023-06-22T08:36:50;21.50;99.90
14521;DHT22;7347;50.844;4.490;2023-06-22T08:39:18;21.60;99.90
14521;DHT22;7347;50.844;4.490;2023-06-22T08:41:46;21.60;99.90
14521;DHT22;7347;50.844;4.490;2023-06-22T08:44:13;21.40;99.90
14521;DHT22;7347;50.844;4.490;2023-06-22T08:46:40;21.40;99.90
14521;DHT22;7347;50.844;4.490;2023-06-22T08:49:07;21.50;99.90
14521;DHT22;7347;50.844;4.490;2023-06-22T08:51:35;21.40;99.90
14521;DHT22;7347;50.844;4.490;2023-06-22T08:54:02;21.60;99.90
14521;DHT22;7347;50.844;4.490;2023-06-22T08:56:29;21.70;99.90
14521;DHT22;7347;50.844;4.490;2023-06-22T08:58:57;21.70;99.90
14521;DHT22;7347;50.844;4.490;2023-06-22T09:01:24;21.60;99.90
14521;DHT22;7347;50.844;4.490;2023-06-22T09:03:51;21.50;99.90
14521;DHT22;7347;50.844;4.490;2023-06-22T09:06:22;21.60;99.90
14521;DHT22;7347;50.844;4.490;2023-06-22T09:08:49;21.70;99.90
14521;DHT22;7347;50.844;4.490;2023-06-22T09:11:16;21.50;99.90
14521;DHT22;7347;50.844;4.490;2023-06-22T09:13:43;21.50;99.90
14521;DHT22;7347;50.844;4.490;2023-06-22T09:16:13;21.50;99.90
14521;DHT22;7347;50.844;4.490;2023-06-22T09:18:40;21.50;99.90
14521;DHT22;7347;50.844;4.490;2023-06-22T09:21:07;21.40;99.90
14521;DHT22;7347;50.844;4.490;2023-06-22T09:23:34;21.20;99.90
14521;DHT22;7347;50.844;4.490;2023-06-22T09:26:01;21.00;99.90
14521;DHT22;7347;50.844;4.490;2023-06-22T09:28:28;20.80;99.90
14521;DHT22;7347;50.844;4.490;2023-06-22T09:30:55;20.40;99.90
14521;DHT22;7347;50.844;4.490;2023-06-22T09:33:26;20.00;99.90
14521;DHT22;7347;50.844;4.490;2023-06-22T09:35:53;19.80;99.90
14521;DHT22;7347;50.844;4.490;2023-06-22T09:38:19;19.20;99.90
14521;DHT22;7347;50.844;4.490;2023-06-22T09:40:46;19.00;99.90
14521;DHT22;7347;50.844;4.490;2023-06-22T09:43:13;18.90;99.90
14521;DHT22;7347;50.844;4.490;2023-06-22T09:45:40;18.80;99.90
14521;DHT22;7347;50.844;4.490;2023-06-22T09:48:07;18.70;99.90
14521;DHT22;7347;50.844;4.490;2023-06-22T09:50:36;18.60;99.90
14521;DHT22;7347;50.844;4.490;2023-06-22T09:53:03;18.60;99.90
14521;DHT22;7347;50.844;4.490;2023-06-22T09:55:30;18.70;99.90
14521;DHT22;7347;50.844;4.490;2023-06-22T09:57:57;18.70;99.90
14521;DHT22;7347;50.844;4.490;2023-06-22T10:00:24;18.60;99.90
14521;DHT22;7347;50.844;4.490;2023-06-22T10:02:52;18.60;99.90
14521;DHT22;7347;50.844;4.490;2023-06-22T10:05:19;18.70;99.90
14521;DHT22;7347;50.844;4.490;2023-06-22T10:07:47;18.70;99.90
14521;DHT22;7347;50.844;4.490;2023-06-22T10:10:14;18.80;99.90
14521;DHT22;7347;50.844;4.490;2023-06-22T10:12:45;18.80;99.90
14521;DHT22;7347;50.844;4.490;2023-06-22T10:15:12;18.70;99.90
14521;DHT22;7347;50.844;4.490;2023-06-22T10:17:39;18.70;99.90
14521;DHT22;7347;50.844;4.490;2023-06-22T10:20:07;18.80;99.90
14521;DHT22;7347;50.844;4.490;2023-06-22T10:22:38;18.70;99.90
14521;DHT22;7347;50.844;4.490;2023-06-22T10:25:08;18.80;99.90
14521;DHT22;7347;50.844;4.490;2023-06-22T10:27:35;18.80;99.90
14521;DHT22;7347;50.844;4.490;2023-06-22T10:30:02;18.80;99.90
14521;DHT22;7347;50.844;4.490;2023-06-22T10:32:30;18.80;99.90
14521;DHT22;7347;50.844;4.490;2023-06-22T10:34:57;18.70;99.90
14521;DHT22;7347;50.844;4.490;2023-06-22T10:37:24;18.70;99.90
14521;DHT22;7347;50.844;4.490;2023-06-22T10:39:51;18.60;99.90
14521;DHT22;7347;50.844;4.490;2023-06-22T10:42:19;18.60;99.90
14521;DHT22;7347;50.844;4.490;2023-06-22T10:44:46;18.60;99.90
14521;DHT22;7347;50.844;4.490;2023-06-22T10:47:13;18.50;99.90
14521;DHT22;7347;50.844;4.490;2023-06-22T10:49:40;18.60;99.90
14521;DHT22;7347;50.844;4.490;2023-06-22T10:52:08;18.60;99.90
14521;DHT22;7347;50.844;4.490;2023-06-22T10:54:36;18.50;99.90
14521;DHT22;7347;50.844;4.490;2023-06-22T10:57:03;18.50;99.90
14521;DHT22;7347;50.844;4.490;2023-06-22T10:59:32;18.40;99.90
14521;DHT22;7347;50.844;4.490;2023-06-22T11:01:58;18.40;99.90
14521;DHT22;7347;50.844;4.490;2023-06-22T11:04:25;18.40;99.90
14521;DHT22;7347;50.844;4.490;2023-06-22T11:06:52;18.30;99.90
14521;DHT22;7347;50.844;4.490;2023-06-22T11:09:19;18.30;99.90
14521;DHT22;7347;50.844;4.490;2023-06-22T11:11:46;18.30;99.90
14521;DHT22;7347;50.844;4.490;2023-06-22T11:14:13;18.30;99.90
14521;DHT22;7347;50.844;4.490;2023-06-22T11:16:42;18.30;99.90
14521;DHT22;7347;50.844;4.490;2023-06-22T11:19:08;18.30;99.90
14521;DHT22;7347;50.844;4.490;2023-06-22T11:21:35;18.50;99.90
14521;DHT22;7347;50.844;4.490;2023-06-22T11:24:02;18.60;99.90
14521;DHT22;7347;50.844;4.490;2023-06-22T11:26:29;18.70;99.90
14521;DHT22;7347;50.844;4.490;2023-06-22T11:28:57;18.70;99.90
14521;DHT22;7347;50.844;4.490;2023-06-22T11:31:24;18.70;99.90
14521;DHT22;7347;50.844;4.490;2023-06-22T11:33:53;18.70;99.90
14521;DHT22;7347;50.844;4.490;2023-06-22T11:36:20;18.80;99.90
14521;DHT22;7347;50.844;4.490;2023-06-22T11:38:47;18.80;99.90
14521;DHT22;7347;50.844;4.490;2023-06-22T11:41:13;18.90;99.90
14521;DHT22;7347;50.844;4.490;2023-06-22T11:43:40;18.80;99.90
14521;DHT22;7347;50.844;4.490;2023-06-22T11:46:07;18.80;99.90
14521;DHT22;7347;50.844;4.490;2023-06-22T11:48:34;18.80;99.90
14521;DHT22;7347;50.844;4.490;2023-06-22T11:51:03;18.90;99.90
14521;DHT22;7347;50.844;4.490;2023-06-22T11:53:32;19.00;99.90
14521;DHT22;7347;50.844;4.490;2023-06-22T11:56:00;19.00;99.90
14521;DHT22;7347;50.844;4.490;2023-06-22T11:58:27;19.00;99.90
14521;DHT22;7347;50.844;4.490;2023-06-22T12:00:54;19.00;99.90
14521;DHT22;7347;50.844;4.490;2023-06-22T12:03:21;18.90;99.90
14521;DHT22;7347;50.844;4.490;2023-06-22T12:05:49;18.80;99.90
14521;DHT22;7347;50.844;4.490;2023-06-22T12:08:17;18.80;99.90
14521;DHT22;7347;50.844;4.490;2023-06-22T12:10:44;18.90;99.90
14521;DHT22;7347;50.844;4.490;2023-06-22T12:13:11;18.90;99.90
14521;DHT22;7347;50.844;4.490;2023-06-22T12:15:38;18.90;99.90
14521;DHT22;7347;50.844;4.490;2023-06-22T12:18:05;18.80;99.90
14521;DHT22;7347;50.844;4.490;2023-06-22T12:20:31;18.60;99.90
14521;DHT22;7347;50.844;4.490;2023-06-22T12:22:58;18.60;99.90
14521;DHT22;7347;50.844;4.490;2023-06-22T12:25:26;18.60;99.90
14521;DHT22;7347;50.844;4.490;2023-06-22T12:27:53;18.60;99.90
14521;DHT22;7347;50.844;4.490;2023-06-22T12:30:20;18.50;99.90
14521;DHT22;7347;50.844;4.490;2023-06-22T12:32:47;18.50;99.90
14521;DHT22;7347;50.844;4.490;2023-06-22T12:35:15;18.50;99.90
14521;DHT22;7347;50.844;4.490;2023-06-22T12:37:42;18.60;99.90
14521;DHT22;7347;50.844;4.490;2023-06-22T12:40:10;18.60;99.90
14521;DHT22;7347;50.844;4.490;2023-06-22T12:42:38;18.70;99.90
14521;DHT22;7347;50.844;4.490;2023-06-22T12:45:06;18.70;99.90
14521;DHT22;7347;50.844;4.490;2023-06-22T12:47:33;18.70;99.90
14521;DHT22;7347;50.844;4.490;2023-06-22T12:50:00;18.70;99.90
14521;DHT22;7347;50.844;4.490;2023-06-22T12:52:26;18.60;99.90
14521;DHT22;7347;50.844;4.490;2023-06-22T12:54:53;18.60;99.90
14521;DHT22;7347;50.844;4.490;2023-06-22T12:57:20;18.60;99.90
14521;DHT22;7347;50.844;4.490;2023-06-22T12:59:49;18.70;99.90
14521;DHT22;7347;50.844;4.490;2023-06-22T13:02:15;18.60;99.90
14521;DHT22;7347;50.844;4.490;2023-06-22T13:04:42;18.80;99.90
14521;DHT22;7347;50.844;4.490;2023-06-22T13:07:09;18.80;99.90
14521;DHT22;7347;50.844;4.490;2023-06-22T13:09:36;18.80;99.90
14521;DHT22;7347;50.844;4.490;2023-06-22T13:12:04;18.90;99.90
14521;DHT22;7347;50.844;4.490;2023-06-22T13:14:31;19.00;99.90
14521;DHT22;7347;50.844;4.490;2023-06-22T13:16:59;19.00;99.90
14521;DHT22;7347;50.844;4.490;2023-06-22T13:19:25;19.00;99.90
14521;DHT22;7347;50.844;4.490;2023-06-22T13:21:54;18.90;99.90
14521;DHT22;7347;50.844;4.490;2023-06-22T13:24:21;18.90;99.90
14521;DHT22;7347;50.844;4.490;2023-06-22T13:26:48;18.90;99.90
14521;DHT22;7347;50.844;4.490;2023-06-22T13:29:14;18.90;99.90
14521;DHT22;7347;50.844;4.490;2023-06-22T13:31:41;18.90;99.90
14521;DHT22;7347;50.844;4.490;2023-06-22T13:34:09;18.90;99.90
14521;DHT22;7347;50.844;4.490;2023-06-22T13:36:37;18.80;99.90
14521;DHT22;7347;50.844;4.490;2023-06-22T13:39:04;18.70;99.90
14521;DHT22;7347;50.844;4.490;2023-06-22T13:41:30;18.80;99.90
14521;DHT22;7347;50.844;4.490;2023-06-22T13:43:57;18.70;99.90
14521;DHT22;7347;50.844;4.490;2023-06-22T13:46:24;18.70;99.90
14521;DHT22;7347;50.844;4.490;2023-06-22T13:48:58;18.70;99.90
14521;DHT22;7347;50.844;4.490;2023-06-22T13:51:26;18.60;99.90
14521;DHT22;7347;50.844;4.490;2023-06-22T13:53:53;18.60;99.90
14521;DHT22;7347;50.844;4.490;2023-06-22T13:56:20;18.60;99.90
14521;DHT22;7347;50.844;4.490;2023-06-22T13:58:47;18.50;99.90
14521;DHT22;7347;50.844;4.490;2023-06-22T14:01:14;18.50;99.90
14521;DHT22;7347;50.844;4.490;2023-06-22T14:03:40;18.50;99.90
14521;DHT22;7347;50.844;4.490;2023-06-22T14:06:07;18.40;99.90
14521;DHT22;7347;50.844;4.490;2023-06-22T14:08:37;18.30;99.90
14521;DHT22;7347;50.844;4.490;2023-06-22T14:11:04;18.30;99.90
14521;DHT22;7347;50.844;4.490;2023-06-22T14:13:31;18.30;99.90
14521;DHT22;7347;50.844;4.490;2023-06-22T14:15:58;18.30;99.90
14521;DHT22;7347;50.844;4.490;2023-06-22T14:18:24;18.30;99.90
14521;DHT22;7347;50.844;4.490;2023-06-22T14:20:51;18.40;99.90
14521;DHT22;7347;50.844;4.490;2023-06-22T14:23:18;18.40;99.90
14521;DHT22;7347;50.844;4.490;2023-06-22T14:25:46;18.40;99.90
14521;DHT22;7347;50.844;4.490;2023-06-22T14:28:13;18.30;99.90
14521;DHT22;7347;50.844;4.490;2023-06-22T14:30:41;18.30;99.90
14521;DHT22;7347;50.844;4.490;2023-06-22T14:33:08;18.30;99.90
14521;DHT22;7347;50.844;4.490;2023-06-22T14:35:35;18.30;99.90
14521;DHT22;7347;50.844;4.490;2023-06-22T14:38:02;18.30;99.90
14521;DHT22;7347;50.844;4.490;2023-06-22T14:40:28;18.30;99.90
14521;DHT22;7347;50.844;4.490;2023-06-22T14:42:57;18.20;99.90
14521;DHT22;7347;50.844;4.490;2023-06-22T14:45:24;18.30;99.90
14521;DHT22;7347;50.844;4.490;2023-06-22T14:47:51;18.30;99.90
14521;DHT22;7347;50.844;4.490;2023-06-22T14:50:17;18.30;99.90
14521;DHT22;7347;50.844;4.490;2023-06-22T14:52:44;18.30;99.90
14521;DHT22;7347;50.844;4.490;2023-06-22T14:55:11;18.30;99.90
14521;DHT22;7347;50.844;4.490;2023-06-22T14:57:38;18.30;99.90
14521;DHT22;7347;50.844;4.490;2023-06-22T15:00:08;18.30;99.90
14521;DHT22;7347;50.844;4.490;2023-06-22T15:02:35;18.30;99.90
14521;DHT22;7347;50.844;4.490;2023-06-22T15:05:02;18.40;99.90
14521;DHT22;7347;50.844;4.490;2023-06-22T15:07:29;18.40;99.90
14521;DHT22;7347;50.844;4.490;2023-06-22T15:09:55;18.50;99.90
14521;DHT22;7347;50.844;4.490;2023-06-22T15:12:22;18.50;99.90
14521;DHT22;7347;50.844;4.490;2023-06-22T15:14:49;18.50;99.90
14521;DHT22;7347;50.844;4.490;2023-06-22T15:17:17;18.50;99.90
14521;DHT22;7347;50.844;4.490;2023-06-22T15:19:44;18.50;99.90
14521;DHT22;7347;50.844;4.490;2023-06-22T15:22:11;18.60;99.90
14521;DHT22;7347;50.844;4.490;2023-06-22T15:24:38;18.60;99.90
14521;DHT22;7347;50.844;4.490;2023-06-22T15:27:05;18.70;99.90
14521;DHT22;7347;50.844;4.490;2023-06-22T15:29:32;18.70;99.90
14521;DHT22;7347;50.844;4.490;2023-06-22T15:31:59;18.70;99.90
14521;DHT22;7347;50.844;4.490;2023-06-22T15:34:28;18.70;99.90
14521;DHT22;7347;50.844;4.490;2023-06-22T15:36:55;18.70;99.90
14521;DHT22;7347;50.844;4.490;2023-06-22T15:39:21;18.80;99.90
14521;DHT22;7347;50.844;4.490;2023-06-22T15:41:50;18.80;99.90
14521;DHT22;7347;50.844;4.490;2023-06-22T15:44:19;18.80;99.90
14521;DHT22;7347;50.844;4.490;2023-06-22T15:46:46;18.90;99.90
14521;DHT22;7347;50.844;4.490;2023-06-22T15:49:14;18.90;99.90
14521;DHT22;7347;50.844;4.490;2023-06-22T15:51:43;19.00;99.90
14521;DHT22;7347;50.844;4.490;2023-06-22T15:54:10;19.00;99.90
14521;DHT22;7347;50.844;4.490;2023-06-22T15:56:37;19.10;99.90
14521;DHT22;7347;50.844;4.490;2023-06-22T15:59:04;19.10;99.90
14521;DHT22;7347;50.844;4.490;2023-06-22T16:01:31;19.10;99.90
14521;DHT22;7347;50.844;4.490;2023-06-22T16:03:57;19.10;99.90
14521;DHT22;7347;50.844;4.490;2023-06-22T16:06:24;19.10;99.90
14521;DHT22;7347;50.844;4.490;2023-06-22T16:08:52;19.10;99.90
14521;DHT22;7347;50.844;4.490;2023-06-22T16:11:19;19.10;99.90
14521;DHT22;7347;50.844;4.490;2023-06-22T16:13:46;19.10;99.90
14521;DHT22;7347;50.844;4.490;2023-06-22T16:16:13;19.20;99.90
14521;DHT22;7347;50.844;4.490;2023-06-22T16:18:41;19.20;99.90
14521;DHT22;7347;50.844;4.490;2023-06-22T16:21:08;19.20;99.90
14521;DHT22;7347;50.844;4.490;2023-06-22T16:23:35;19.20;99.90
14521;DHT22;7347;50.844;4.490;2023-06-22T16:26:03;19.30;99.90
14521;DHT22;7347;50.844;4.490;2023-06-22T16:28:30;19.30;99.90
14521;DHT22;7347;50.844;4.490;2023-06-22T16:30:57;19.40;99.90
14521;DHT22;7347;50.844;4.490;2023-06-22T16:33:24;19.40;99.90
14521;DHT22;7347;50.844;4.490;2023-06-22T16:35:51;19.50;99.90
14521;DHT22;7347;50.844;4.490;2023-06-22T16:38:18;19.40;99.90
14521;DHT22;7347;50.844;4.490;2023-06-22T16:40:45;19.50;99.90
14521;DHT22;7347;50.844;4.490;2023-06-22T16:43:13;19.50;99.90
14521;DHT22;7347;50.844;4.490;2023-06-22T16:45:40;19.50;99.90
14521;DHT22;7347;50.844;4.490;2023-06-22T16:48:08;19.50;99.90
14521;DHT22;7347;50.844;4.490;2023-06-22T16:50:35;19.40;99.90
14521;DHT22;7347;50.844;4.490;2023-06-22T16:53:01;19.40;99.90
14521;DHT22;7347;50.844;4.490;2023-06-22T16:55:29;19.40;99.90
14521;DHT22;7347;50.844;4.490;2023-06-22T16:57:58;19.50;99.90
14521;DHT22;7347;50.844;4.490;2023-06-22T17:00:28;19.50;99.90
14521;DHT22;7347;50.844;4.490;2023-06-22T17:02:56;19.60;99.90
14521;DHT22;7347;50.844;4.490;2023-06-22T17:05:26;19.60;99.90
14521;DHT22;7347;50.844;4.490;2023-06-22T17:07:56;19.70;99.90
14521;DHT22;7347;50.844;4.490;2023-06-22T17:10:24;19.60;99.90
14521;DHT22;7347;50.844;4.490;2023-06-22T17:12:50;19.60;99.90
14521;DHT22;7347;50.844;4.490;2023-06-22T17:15:18;19.60;99.90
14521;DHT22;7347;50.844;4.490;2023-06-22T17:17:48;19.60;99.90
14521;DHT22;7347;50.844;4.490;2023-06-22T17:20:16;19.60;99.90
14521;DHT22;7347;50.844;4.490;2023-06-22T17:22:43;19.50;99.90
14521;DHT22;7347;50.844;4.490;2023-06-22T17:25:12;19.60;99.90
14521;DHT22;7347;50.844;4.490;2023-06-22T17:27:40;19.60;99.90
14521;DHT22;7347;50.844;4.490;2023-06-22T17:30:08;19.60;99.90
14521;DHT22;7347;50.844;4.490;2023-06-22T17:32:36;19.60;99.90
14521;DHT22;7347;50.844;4.490;2023-06-22T17:35:05;19.70;99.90
14521;DHT22;7347;50.844;4.490;2023-06-22T17:37:47;19.70;99.90
14521;DHT22;7347;50.844;4.490;2023-06-22T17:40:15;19.80;99.90
14521;DHT22;7347;50.844;4.490;2023-06-22T17:42:43;19.70;99.90
14521;DHT22;7347;50.844;4.490;2023-06-22T17:45:15;19.70;99.90
14521;DHT22;7347;50.844;4.490;2023-06-22T17:47:42;19.80;99.90
14521;DHT22;7347;50.844;4.490;2023-06-22T17:50:15;19.70;99.90
14521;DHT22;7347;50.844;4.490;2023-06-22T17:52:47;19.70;99.90
14521;DHT22;7347;50.844;4.490;2023-06-22T17:55:15;19.70;99.90
14521;DHT22;7347;50.844;4.490;2023-06-22T17:57:42;19.80;99.90
14521;DHT22;7347;50.844;4.490;2023-06-22T18:00:12;19.70;99.90
14521;DHT22;7347;50.844;4.490;2023-06-22T18:02:40;19.70;99.90
14521;DHT22;7347;50.844;4.490;2023-06-22T18:05:08;19.70;99.90
14521;DHT22;7347;50.844;4.490;2023-06-22T18:07:37;19.70;99.90
14521;DHT22;7347;50.844;4.490;2023-06-22T18:10:06;19.80;99.90
14521;DHT22;7347;50.844;4.490;2023-06-22T18:12:34;19.70;99.90
14521;DHT22;7347;50.844;4.490;2023-06-22T18:15:02;19.80;99.90
14521;DHT22;7347;50.844;4.490;2023-06-22T18:17:29;19.80;99.90
14521;DHT22;7347;50.844;4.490;2023-06-22T18:19:56;19.90;99.90
14521;DHT22;7347;50.844;4.490;2023-06-22T18:22:25;19.90;99.90
14521;DHT22;7347;50.844;4.490;2023-06-22T18:24:54;19.90;99.90
14521;DHT22;7347;50.844;4.490;2023-06-22T18:27:22;19.90;99.90
14521;DHT22;7347;50.844;4.490;2023-06-22T18:29:50;19.90;99.90
14521;DHT22;7347;50.844;4.490;2023-06-22T18:32:17;20.00;99.90
14521;DHT22;7347;50.844;4.490;2023-06-22T18:34:44;20.00;99.90
14521;DHT22;7347;50.844;4.490;2023-06-22T18:37:13;20.10;99.90
14521;DHT22;7347;50.844;4.490;2023-06-22T18:39:43;20.10;99.90
14521;DHT22;7347;50.844;4.490;2023-06-22T18:42:14;20.10;99.90
14521;DHT22;7347;50.844;4.490;2023-06-22T18:44:42;20.10;99.90
14521;DHT22;7347;50.844;4.490;2023-06-22T18:47:09;20.10;99.90
14521;DHT22;7347;50.844;4.490;2023-06-22T18:49:46;20.00;99.90
14521;DHT22;7347;50.844;4.490;2023-06-22T18:52:15;20.00;99.90
14521;DHT22;7347;50.844;4.490;2023-06-22T18:54:43;20.00;99.90
14521;DHT22;7347;50.844;4.490;2023-06-22T18:57:16;20.00;99.90
14521;DHT22;7347;50.844;4.490;2023-06-22T18:59:47;20.00;99.90
14521;DHT22;7347;50.844;4.490;2023-06-22T19:02:33;20.00;99.90
14521;DHT22;7347;50.844;4.490;2023-06-22T19:05:07;19.90;99.90
14521;DHT22;7347;50.844;4.490;2023-06-22T19:07:56;19.80;99.90
14521;DHT22;7347;50.844;4.490;2023-06-22T19:10:25;19.80;99.90
14521;DHT22;7347;50.844;4.490;2023-06-22T19:12:53;19.90;99.90
14521;DHT22;7347;50.844;4.490;2023-06-22T19:15:20;19.90;99.90
14521;DHT22;7347;50.844;4.490;2023-06-22T19:17:48;19.90;99.90
14521;DHT22;7347;50.844;4.490;2023-06-22T19:20:18;20.00;99.90
14521;DHT22;7347;50.844;4.490;2023-06-22T19:22:53;20.00;99.90
14521;DHT22;7347;50.844;4.490;2023-06-22T19:25:22;19.90;99.90
14521;DHT22;7347;50.844;4.490;2023-06-22T19:27:50;20.00;99.90
14521;DHT22;7347;50.844;4.490;2023-06-22T19:30:20;20.00;99.90
14521;DHT22;7347;50.844;4.490;2023-06-22T19:32:47;19.90;99.90
14521;DHT22;7347;50.844;4.490;2023-06-22T19:35:15;19.80;99.90
14521;DHT22;7347;50.844;4.490;2023-06-22T19:37:42;19.90;99.90
14521;DHT22;7347;50.844;4.490;2023-06-22T19:40:11;19.90;99.90
14521;DHT22;7347;50.844;4.490;2023-06-22T19:42:39;19.80;99.90
14521;DHT22;7347;50.844;4.490;2023-06-22T19:45:07;19.80;99.90
14521;DHT22;7347;50.844;4.490;2023-06-22T19:47:35;19.80;99.90
14521;DHT22;7347;50.844;4.490;2023-06-22T19:50:04;19.80;99.90
14521;DHT22;7347;50.844;4.490;2023-06-22T19:52:35;19.80;99.90
14521;DHT22;7347;50.844;4.490;2023-06-22T19:55:02;19.80;99.90
14521;DHT22;7347;50.844;4.490;2023-06-22T19:57:33;19.80;99.90
14521;DHT22;7347;50.844;4.490;2023-06-22T20:00:01;19.80;99.90
14521;DHT22;7347;50.844;4.490;2023-06-22T20:02:32;19.70;99.90
14521;DHT22;7347;50.844;4.490;2023-06-22T20:05:05;19.60;99.90
14521;DHT22;7347;50.844;4.490;2023-06-22T20:07:35;19.70;99.90
14521;DHT22;7347;50.844;4.490;2023-06-22T20:10:11;19.60;99.90
14521;DHT22;7347;50.844;4.490;2023-06-22T20:12:39;19.70;99.90
14521;DHT22;7347;50.844;4.490;2023-06-22T20:15:22;19.70;99.90
14521;DHT22;7347;50.844;4.490;2023-06-22T20:18:01;19.70;99.90
14521;DHT22;7347;50.844;4.490;2023-06-22T20:20:31;19.70;99.90
14521;DHT22;7347;50.844;4.490;2023-06-22T20:23:02;19.70;99.90
14521;DHT22;7347;50.844;4.490;2023-06-22T20:25:31;19.70;99.90
14521;DHT22;7347;50.844;4.490;2023-06-22T20:28:04;19.70;99.90
14521;DHT22;7347;50.844;4.490;2023-06-22T20:30:32;19.70;99.90
14521;DHT22;7347;50.844;4.490;2023-06-22T20:32:59;19.70;99.90
14521;DHT22;7347;50.844;4.490;2023-06-22T20:35:29;19.70;99.90
14521;DHT22;7347;50.844;4.490;2023-06-22T20:37:56;19.70;99.90
14521;DHT22;7347;50.844;4.490;2023-06-22T20:40:24;19.60;99.90
14521;DHT22;7347;50.844;4.490;2023-06-22T20:42:54;19.60;99.90
14521;DHT22;7347;50.844;4.490;2023-06-22T20:45:21;19.50;99.90
14521;DHT22;7347;50.844;4.490;2023-06-22T20:47:51;19.50;99.90
14521;DHT22;7347;50.844;4.490;2023-06-22T20:50:18;19.40;99.90
14521;DHT22;7347;50.844;4.490;2023-06-22T20:52:46;19.40;99.90
14521;DHT22;7347;50.844;4.490;2023-06-22T20:55:13;19.30;99.90
14521;DHT22;7347;50.844;4.490;2023-06-22T20:57:40;19.30;99.90
14521;DHT22;7347;50.844;4.490;2023-06-22T21:00:10;19.20;99.90
14521;DHT22;7347;50.844;4.490;2023-06-22T21:02:37;19.10;99.90
14521;DHT22;7347;50.844;4.490;2023-06-22T21:05:06;19.10;99.90
14521;DHT22;7347;50.844;4.490;2023-06-22T21:07:33;19.10;99.90
14521;DHT22;7347;50.844;4.490;2023-06-22T21:10:01;19.10;99.90
14521;DHT22;7347;50.844;4.490;2023-06-22T21:12:28;19.00;99.90
14521;DHT22;7347;50.844;4.490;2023-06-22T21:14:55;19.10;99.90
14521;DHT22;7347;50.844;4.490;2023-06-22T21:17:22;19.00;99.90
14521;DHT22;7347;50.844;4.490;2023-06-22T21:19:49;19.00;99.90
14521;DHT22;7347;50.844;4.490;2023-06-22T21:22:17;18.90;99.90
14521;DHT22;7347;50.844;4.490;2023-06-22T21:24:44;18.90;99.90
14521;DHT22;7347;50.844;4.490;2023-06-22T21:27:13;18.80;99.90
14521;DHT22;7347;50.844;4.490;2023-06-22T21:29:40;18.80;99.90
14521;DHT22;7347;50.844;4.490;2023-06-22T21:32:07;18.80;99.90
14521;DHT22;7347;50.844;4.490;2023-06-22T21:34:34;18.70;99.90
14521;DHT22;7347;50.844;4.490;2023-06-22T21:37:01;18.70;99.90
14521;DHT22;7347;50.844;4.490;2023-06-22T21:39:27;18.60;99.90
